sensor_id;sensor_type;location;lat;lon;timestamp;temperature;humidity
41220;DHT22;26951;47.338;9.196;2023-02-01T00:00:34;1.50;58.80
41220;DHT22;26951;47.338;9.196;2023-02-01T00:03:18;1.50;58.40
41220;DHT22;26951;47.338;9.196;2023-02-01T00:06:03;1.50;58.60
41220;DHT22;26951;47.338;9.196;2023-02-01T00:08:46;1.50;58.60
41220;DHT22;26951;47.338;9.196;2023-02-01T00:11:31;1.50;58.00
41220;DHT22;26951;47.338;9.196;2023-02-01T00:14:15;1.50;58.70
41220;DHT22;26951;47.338;9.196;2023-02-01T00:16:59;1.50;58.60
41220;DHT22;26951;47.338;9.196;2023-02-01T00:19:43;1.50;58.40
41220;DHT22;26951;47.338;9.196;2023-02-01T00:22:27;1.40;58.40
41220;DHT22;26951;47.338;9.196;2023-02-01T00:25:11;1.50;58.30
41220;DHT22;26951;47.338;9.196;2023-02-01T00:27:55;1.50;58.70
41220;DHT22;26951;47.338;9.196;2023-02-01T00:30:42;1.50;57.80
41220;DHT22;26951;47.338;9.196;2023-02-01T00:33:27;1.50;57.50
41220;DHT22;26951;47.338;9.196;2023-02-01T00:36:12;1.40;57.60
41220;DHT22;26951;47.338;9.196;2023-02-01T00:38:56;1.40;57.50
41220;DHT22;26951;47.338;9.196;2023-02-01T00:41:40;1.40;57.80
41220;DHT22;26951;47.338;9.196;2023-02-01T00:44:24;1.30;57.80
41220;DHT22;26951;47.338;9.196;2023-02-01T00:47:08;1.30;58.20
41220;DHT22;26951;47.338;9.196;2023-02-01T00:49:52;1.40;57.40
41220;DHT22;26951;47.338;9.196;2023-02-01T00:52:36;1.30;57.60
41220;DHT22;26951;47.338;9.196;2023-02-01T00:55:20;1.30;57.60
41220;DHT22;26951;47.338;9.196;2023-02-01T00:58:05;1.20;57.50
41220;DHT22;26951;47.338;9.196;2023-02-01T01:01:23;1.20;57.50
41220;DHT22;26951;47.338;9.196;2023-02-01T01:04:08;1.10;57.20
41220;DHT22;26951;47.338;9.196;2023-02-01T01:06:53;1.10;57.10
41220;DHT22;26951;47.338;9.196;2023-02-01T01:09:37;1.10;57.30
41220;DHT22;26951;47.338;9.196;2023-02-01T01:12:21;1.10;57.40
41220;DHT22;26951;47.338;9.196;2023-02-01T01:15:05;1.00;57.50
41220;DHT22;26951;47.338;9.196;2023-02-01T01:17:50;1.00;57.20
41220;DHT22;26951;47.338;9.196;2023-02-01T01:20:36;1.00;57.10
41220;DHT22;26951;47.338;9.196;2023-02-01T01:23:21;0.90;56.90
41220;DHT22;26951;47.338;9.196;2023-02-01T01:26:06;0.80;56.80
41220;DHT22;26951;47.338;9.196;2023-02-01T01:28:51;0.80;56.00
41220;DHT22;26951;47.338;9.196;2023-02-01T01:31:36;0.70;55.70
41220;DHT22;26951;47.338;9.196;2023-02-01T01:34:20;0.60;56.60
41220;DHT22;26951;47.338;9.196;2023-02-01T01:37:04;0.60;56.70
41220;DHT22;26951;47.338;9.196;2023-02-01T01:39:48;0.50;56.40
41220;DHT22;26951;47.338;9.196;2023-02-01T01:42:40;0.40;56.80
41220;DHT22;26951;47.338;9.196;2023-02-01T01:45:34;0.30;56.60
41220;DHT22;26951;47.338;9.196;2023-02-01T01:48:28;0.30;56.60
41220;DHT22;26951;47.338;9.196;2023-02-01T01:51:14;0.20;56.20
41220;DHT22;26951;47.338;9.196;2023-02-01T01:54:11;0.10;56.50
41220;DHT22;26951;47.338;9.196;2023-02-01T01:57:00;0.00;56.00
41220;DHT22;26951;47.338;9.196;2023-02-01T01:59:48;-0.10;56.30
41220;DHT22;26951;47.338;9.196;2023-02-01T02:02:36;-0.10;56.70
41220;DHT22;26951;47.338;9.196;2023-02-01T02:05:21;-0.20;56.70
41220;DHT22;26951;47.338;9.196;2023-02-01T02:08:05;-0.30;56.30
41220;DHT22;26951;47.338;9.196;2023-02-01T02:10:50;-0.40;56.80
41220;DHT22;26951;47.338;9.196;2023-02-01T02:13:48;-0.50;56.40
41220;DHT22;26951;47.338;9.196;2023-02-01T02:20:28;-0.60;57.00
41220;DHT22;26951;47.338;9.196;2023-02-01T02:36:23;-0.90;57.90
41220;DHT22;26951;47.338;9.196;2023-02-01T02:45:33;-1.10;58.10
41220;DHT22;26951;47.338;9.196;2023-02-01T02:48:47;-1.20;58.10
41220;DHT22;26951;47.338;9.196;2023-02-01T02:51:42;-1.20;58.70
41220;DHT22;26951;47.338;9.196;2023-02-01T02:54:54;-1.30;58.30
41220;DHT22;26951;47.338;9.196;2023-02-01T02:57:41;-1.40;58.00
41220;DHT22;26951;47.338;9.196;2023-02-01T03:00:46;-1.40;57.80
41220;DHT22;26951;47.338;9.196;2023-02-01T03:03:50;-1.50;58.10
41220;DHT22;26951;47.338;9.196;2023-02-01T03:06:53;-1.50;58.40
41220;DHT22;26951;47.338;9.196;2023-02-01T03:09:40;-1.60;58.20
41220;DHT22;26951;47.338;9.196;2023-02-01T03:12:25;-1.60;58.70
41220;DHT22;26951;47.338;9.196;2023-02-01T03:21:57;-1.80;59.50
41220;DHT22;26951;47.338;9.196;2023-02-01T03:24:46;-1.80;60.10
41220;DHT22;26951;47.338;9.196;2023-02-01T03:27:52;-1.80;60.50
41220;DHT22;26951;47.338;9.196;2023-02-01T03:30:38;-1.70;61.20
41220;DHT22;26951;47.338;9.196;2023-02-01T03:33:25;-1.70;61.70
41220;DHT22;26951;47.338;9.196;2023-02-01T03:36:17;-1.70;62.10
41220;DHT22;26951;47.338;9.196;2023-02-01T03:39:24;-1.60;64.10
41220;DHT22;26951;47.338;9.196;2023-02-01T03:42:20;-1.50;63.50
41220;DHT22;26951;47.338;9.196;2023-02-01T03:45:13;-1.50;64.00
41220;DHT22;26951;47.338;9.196;2023-02-01T03:48:01;-1.30;65.20
41220;DHT22;26951;47.338;9.196;2023-02-01T03:50:50;-1.20;64.00
41220;DHT22;26951;47.338;9.196;2023-02-01T03:53:36;-1.10;65.70
41220;DHT22;26951;47.338;9.196;2023-02-01T03:56:21;-0.90;64.90
41220;DHT22;26951;47.338;9.196;2023-02-01T03:59:08;-0.80;64.20
41220;DHT22;26951;47.338;9.196;2023-02-01T04:01:52;-0.70;65.30
41220;DHT22;26951;47.338;9.196;2023-02-01T04:04:37;-0.50;64.70
41220;DHT22;26951;47.338;9.196;2023-02-01T04:07:21;-0.40;64.30
41220;DHT22;26951;47.338;9.196;2023-02-01T04:10:05;-0.30;63.90
41220;DHT22;26951;47.338;9.196;2023-02-01T04:12:50;-0.20;63.50
41220;DHT22;26951;47.338;9.196;2023-02-01T04:15:34;-0.10;62.80
41220;DHT22;26951;47.338;9.196;2023-02-01T04:18:18;0.10;60.70
41220;DHT22;26951;47.338;9.196;2023-02-01T04:21:03;0.10;60.50
41220;DHT22;26951;47.338;9.196;2023-02-01T04:23:47;0.10;60.80
41220;DHT22;26951;47.338;9.196;2023-02-01T04:26:31;0.20;60.20
41220;DHT22;26951;47.338;9.196;2023-02-01T04:29:15;0.20;60.10
41220;DHT22;26951;47.338;9.196;2023-02-01T04:31:59;0.30;60.30
41220;DHT22;26951;47.338;9.196;2023-02-01T04:34:43;0.30;60.50
41220;DHT22;26951;47.338;9.196;2023-02-01T04:37:27;0.40;60.10
41220;DHT22;26951;47.338;9.196;2023-02-01T04:40:13;0.40;60.20
41220;DHT22;26951;47.338;9.196;2023-02-01T04:42:57;0.50;60.40
41220;DHT22;26951;47.338;9.196;2023-02-01T04:45:41;0.60;59.90
41220;DHT22;26951;47.338;9.196;2023-02-01T04:48:25;0.70;59.30
41220;DHT22;26951;47.338;9.196;2023-02-01T04:51:10;0.80;58.60
41220;DHT22;26951;47.338;9.196;2023-02-01T04:53:54;0.80;58.80
41220;DHT22;26951;47.338;9.196;2023-02-01T04:56:40;0.90;58.70
41220;DHT22;26951;47.338;9.196;2023-02-01T04:59:23;0.90;58.30
41220;DHT22;26951;47.338;9.196;2023-02-01T05:02:08;1.00;57.60
41220;DHT22;26951;47.338;9.196;2023-02-01T05:04:51;1.10;57.50
41220;DHT22;26951;47.338;9.196;2023-02-01T05:07:35;1.10;57.10
41220;DHT22;26951;47.338;9.196;2023-02-01T05:10:20;1.10;57.40
41220;DHT22;26951;47.338;9.196;2023-02-01T05:13:04;1.10;57.50
41220;DHT22;26951;47.338;9.196;2023-02-01T05:16:07;1.20;57.10
41220;DHT22;26951;47.338;9.196;2023-02-01T05:18:51;1.20;57.10
41220;DHT22;26951;47.338;9.196;2023-02-01T05:21:35;1.20;57.30
41220;DHT22;26951;47.338;9.196;2023-02-01T05:24:19;1.20;57.40
41220;DHT22;26951;47.338;9.196;2023-02-01T05:27:04;1.20;57.40
41220;DHT22;26951;47.338;9.196;2023-02-01T05:29:48;1.30;57.30
41220;DHT22;26951;47.338;9.196;2023-02-01T05:32:32;1.30;57.30
41220;DHT22;26951;47.338;9.196;2023-02-01T05:35:16;1.30;57.30
41220;DHT22;26951;47.338;9.196;2023-02-01T05:38:00;1.30;56.90
41220;DHT22;26951;47.338;9.196;2023-02-01T05:40:44;1.30;57.20
41220;DHT22;26951;47.338;9.196;2023-02-01T05:43:33;1.30;56.70
41220;DHT22;26951;47.338;9.196;2023-02-01T05:46:17;1.30;57.20
41220;DHT22;26951;47.338;9.196;2023-02-01T05:49:02;1.30;57.00
41220;DHT22;26951;47.338;9.196;2023-02-01T05:51:47;1.40;56.70
41220;DHT22;26951;47.338;9.196;2023-02-01T05:54:31;1.40;56.60
41220;DHT22;26951;47.338;9.196;2023-02-01T05:57:16;1.40;56.60
41220;DHT22;26951;47.338;9.196;2023-02-01T06:00:00;1.40;56.40
41220;DHT22;26951;47.338;9.196;2023-02-01T06:02:44;1.40;56.10
41220;DHT22;26951;47.338;9.196;2023-02-01T06:05:28;1.40;56.40
41220;DHT22;26951;47.338;9.196;2023-02-01T06:08:13;1.40;56.60
41220;DHT22;26951;47.338;9.196;2023-02-01T06:11:02;1.40;56.30
41220;DHT22;26951;47.338;9.196;2023-02-01T06:13:47;1.40;56.40
41220;DHT22;26951;47.338;9.196;2023-02-01T06:16:31;1.40;55.90
41220;DHT22;26951;47.338;9.196;2023-02-01T06:19:16;1.40;55.80
41220;DHT22;26951;47.338;9.196;2023-02-01T06:22:00;1.40;55.60
41220;DHT22;26951;47.338;9.196;2023-02-01T06:24:44;1.40;56.10
41220;DHT22;26951;47.338;9.196;2023-02-01T06:27:28;1.50;56.20
41220;DHT22;26951;47.338;9.196;2023-02-01T06:30:14;1.50;56.30
41220;DHT22;26951;47.338;9.196;2023-02-01T06:32:58;1.40;56.40
41220;DHT22;26951;47.338;9.196;2023-02-01T06:35:43;1.40;55.90
41220;DHT22;26951;47.338;9.196;2023-02-01T06:38:31;1.50;56.50
41220;DHT22;26951;47.338;9.196;2023-02-01T06:41:15;1.40;56.70
41220;DHT22;26951;47.338;9.196;2023-02-01T06:44:00;1.40;56.50
41220;DHT22;26951;47.338;9.196;2023-02-01T06:46:44;1.40;56.30
41220;DHT22;26951;47.338;9.196;2023-02-01T06:49:28;1.50;56.40
41220;DHT22;26951;47.338;9.196;2023-02-01T06:52:12;1.50;56.10
41220;DHT22;26951;47.338;9.196;2023-02-01T06:54:56;1.40;55.70
41220;DHT22;26951;47.338;9.196;2023-02-01T06:57:40;1.40;55.60
41220;DHT22;26951;47.338;9.196;2023-02-01T07:00:24;1.30;56.20
41220;DHT22;26951;47.338;9.196;2023-02-01T07:03:08;1.40;56.00
41220;DHT22;26951;47.338;9.196;2023-02-01T07:05:56;1.40;55.50
41220;DHT22;26951;47.338;9.196;2023-02-01T07:08:43;1.40;55.80
41220;DHT22;26951;47.338;9.196;2023-02-01T07:11:27;1.40;55.90
41220;DHT22;26951;47.338;9.196;2023-02-01T07:14:12;1.40;55.80
41220;DHT22;26951;47.338;9.196;2023-02-01T07:16:56;1.40;55.90
41220;DHT22;26951;47.338;9.196;2023-02-01T07:19:40;1.40;55.70
41220;DHT22;26951;47.338;9.196;2023-02-01T07:22:24;1.40;56.00
41220;DHT22;26951;47.338;9.196;2023-02-01T07:25:09;1.40;56.40
41220;DHT22;26951;47.338;9.196;2023-02-01T07:27:53;1.50;56.40
41220;DHT22;26951;47.338;9.196;2023-02-01T07:30:37;1.50;56.30
41220;DHT22;26951;47.338;9.196;2023-02-01T07:33:22;1.50;56.10
41220;DHT22;26951;47.338;9.196;2023-02-01T07:36:11;1.50;56.10
41220;DHT22;26951;47.338;9.196;2023-02-01T07:38:56;1.50;56.00
41220;DHT22;26951;47.338;9.196;2023-02-01T07:41:41;1.50;56.50
41220;DHT22;26951;47.338;9.196;2023-02-01T07:44:25;1.50;56.40
41220;DHT22;26951;47.338;9.196;2023-02-01T07:47:09;1.50;56.30
41220;DHT22;26951;47.338;9.196;2023-02-01T07:49:53;1.60;56.50
41220;DHT22;26951;47.338;9.196;2023-02-01T07:52:37;1.60;56.20
41220;DHT22;26951;47.338;9.196;2023-02-01T07:55:22;1.70;56.00
41220;DHT22;26951;47.338;9.196;2023-02-01T07:58:06;1.70;55.90
41220;DHT22;26951;47.338;9.196;2023-02-01T08:00:51;1.80;55.60
41220;DHT22;26951;47.338;9.196;2023-02-01T08:03:59;1.80;55.50
41220;DHT22;26951;47.338;9.196;2023-02-01T08:06:44;1.90;56.10
41220;DHT22;26951;47.338;9.196;2023-02-01T08:09:28;1.90;56.20
41220;DHT22;26951;47.338;9.196;2023-02-01T08:12:13;2.00;55.90
41220;DHT22;26951;47.338;9.196;2023-02-01T08:14:57;2.00;56.00
41220;DHT22;26951;47.338;9.196;2023-02-01T08:17:48;2.10;55.90
41220;DHT22;26951;47.338;9.196;2023-02-01T08:20:33;2.10;56.00
41220;DHT22;26951;47.338;9.196;2023-02-01T08:23:20;2.10;56.50
41220;DHT22;26951;47.338;9.196;2023-02-01T08:26:25;2.10;56.50
41220;DHT22;26951;47.338;9.196;2023-02-01T08:29:09;2.10;57.10
41220;DHT22;26951;47.338;9.196;2023-02-01T08:31:56;2.20;57.30
41220;DHT22;26951;47.338;9.196;2023-02-01T08:34:40;2.20;57.80
41220;DHT22;26951;47.338;9.196;2023-02-01T08:37:24;2.20;57.90
41220;DHT22;26951;47.338;9.196;2023-02-01T08:40:09;2.20;58.20
41220;DHT22;26951;47.338;9.196;2023-02-01T08:42:53;2.20;58.20
41220;DHT22;26951;47.338;9.196;2023-02-01T08:45:37;2.30;58.80
41220;DHT22;26951;47.338;9.196;2023-02-01T08:48:23;2.30;58.40
41220;DHT22;26951;47.338;9.196;2023-02-01T08:51:10;2.30;58.20
41220;DHT22;26951;47.338;9.196;2023-02-01T08:53:54;2.30;58.20
41220;DHT22;26951;47.338;9.196;2023-02-01T08:56:38;2.30;58.20
41220;DHT22;26951;47.338;9.196;2023-02-01T08:59:22;2.40;58.10
41220;DHT22;26951;47.338;9.196;2023-02-01T09:02:12;2.30;57.80
41220;DHT22;26951;47.338;9.196;2023-02-01T09:04:57;2.30;58.10
41220;DHT22;26951;47.338;9.196;2023-02-01T09:07:42;2.40;58.40
41220;DHT22;26951;47.338;9.196;2023-02-01T09:10:26;2.30;58.30
41220;DHT22;26951;47.338;9.196;2023-02-01T09:13:10;2.30;58.20
41220;DHT22;26951;47.338;9.196;2023-02-01T09:15:54;2.40;58.20
41220;DHT22;26951;47.338;9.196;2023-02-01T09:18:39;2.40;58.20
41220;DHT22;26951;47.338;9.196;2023-02-01T09:21:23;2.40;58.40
41220;DHT22;26951;47.338;9.196;2023-02-01T09:24:10;2.40;58.30
41220;DHT22;26951;47.338;9.196;2023-02-01T09:26:55;2.40;58.10
41220;DHT22;26951;47.338;9.196;2023-02-01T09:29:39;2.50;58.30
41220;DHT22;26951;47.338;9.196;2023-02-01T09:32:23;2.40;58.40
41220;DHT22;26951;47.338;9.196;2023-02-01T09:35:08;2.50;58.20
41220;DHT22;26951;47.338;9.196;2023-02-01T09:37:52;2.50;58.50
41220;DHT22;26951;47.338;9.196;2023-02-01T09:40:41;2.50;58.30
41220;DHT22;26951;47.338;9.196;2023-02-01T09:43:48;2.50;58.10
41220;DHT22;26951;47.338;9.196;2023-02-01T09:46:37;2.50;58.10
41220;DHT22;26951;47.338;9.196;2023-02-01T09:49:32;2.50;58.50
41220;DHT22;26951;47.338;9.196;2023-02-01T09:52:19;2.50;58.60
41220;DHT22;26951;47.338;9.196;2023-02-01T09:55:16;2.60;58.40
41220;DHT22;26951;47.338;9.196;2023-02-01T09:58:11;2.70;58.60
41220;DHT22;26951;47.338;9.196;2023-02-01T10:00:59;2.70;58.50
41220;DHT22;26951;47.338;9.196;2023-02-01T10:03:44;2.70;58.20
41220;DHT22;26951;47.338;9.196;2023-02-01T10:18:56;2.80;58.30
41220;DHT22;26951;47.338;9.196;2023-02-01T10:21:51;2.80;58.40
41220;DHT22;26951;47.338;9.196;2023-02-01T10:24:41;2.90;58.10
41220;DHT22;26951;47.338;9.196;2023-02-01T10:27:35;2.90;58.00
41220;DHT22;26951;47.338;9.196;2023-02-01T10:30:25;3.00;57.90
41220;DHT22;26951;47.338;9.196;2023-02-01T10:33:21;3.10;57.70
41220;DHT22;26951;47.338;9.196;2023-02-01T10:36:13;3.10;57.70
41220;DHT22;26951;47.338;9.196;2023-02-01T10:38:58;3.20;57.50
41220;DHT22;26951;47.338;9.196;2023-02-01T10:41:43;3.20;57.30
41220;DHT22;26951;47.338;9.196;2023-02-01T10:44:29;3.20;57.00
41220;DHT22;26951;47.338;9.196;2023-02-01T10:47:14;3.30;56.80
41220;DHT22;26951;47.338;9.196;2023-02-01T10:55:54;3.40;56.30
41220;DHT22;26951;47.338;9.196;2023-02-01T10:58:47;3.40;56.40
41220;DHT22;26951;47.338;9.196;2023-02-01T11:01:37;3.40;56.20
41220;DHT22;26951;47.338;9.196;2023-02-01T11:04:24;3.30;56.40
41220;DHT22;26951;47.338;9.196;2023-02-01T11:07:23;3.30;56.40
41220;DHT22;26951;47.338;9.196;2023-02-01T11:10:38;3.30;56.20
41220;DHT22;26951;47.338;9.196;2023-02-01T11:13:29;3.30;56.40
41220;DHT22;26951;47.338;9.196;2023-02-01T11:16:14;3.30;57.00
41220;DHT22;26951;47.338;9.196;2023-02-01T11:18:59;3.40;56.50
41220;DHT22;26951;47.338;9.196;2023-02-01T11:21:44;3.40;56.00
41220;DHT22;26951;47.338;9.196;2023-02-01T11:24:36;3.40;56.10
41220;DHT22;26951;47.338;9.196;2023-02-01T11:27:23;3.40;56.30
41220;DHT22;26951;47.338;9.196;2023-02-01T11:30:16;3.40;56.60
41220;DHT22;26951;47.338;9.196;2023-02-01T11:33:03;3.40;56.50
41220;DHT22;26951;47.338;9.196;2023-02-01T11:35:49;3.50;56.00
41220;DHT22;26951;47.338;9.196;2023-02-01T11:38:34;3.50;56.00
41220;DHT22;26951;47.338;9.196;2023-02-01T11:41:24;3.60;56.50
41220;DHT22;26951;47.338;9.196;2023-02-01T11:44:21;3.80;55.60
41220;DHT22;26951;47.338;9.196;2023-02-01T11:50:19;4.30;54.30
41220;DHT22;26951;47.338;9.196;2023-02-01T11:59:57;5.30;51.20
41220;DHT22;26951;47.338;9.196;2023-02-01T12:03:15;5.50;50.60
41220;DHT22;26951;47.338;9.196;2023-02-01T12:15:49;5.60;49.30
41220;DHT22;26951;47.338;9.196;2023-02-01T12:19:11;5.60;49.10
41220;DHT22;26951;47.338;9.196;2023-02-01T12:22:29;5.50;49.40
41220;DHT22;26951;47.338;9.196;2023-02-01T12:28:39;5.30;49.90
41220;DHT22;26951;47.338;9.196;2023-02-01T12:40:11;5.00;50.60
41220;DHT22;26951;47.338;9.196;2023-02-01T12:43:03;5.00;51.00
41220;DHT22;26951;47.338;9.196;2023-02-01T12:45:58;4.90;50.70
41220;DHT22;26951;47.338;9.196;2023-02-01T12:49:00;4.90;51.20
41220;DHT22;26951;47.338;9.196;2023-02-01T12:51:49;4.90;50.90
41220;DHT22;26951;47.338;9.196;2023-02-01T12:54:46;4.80;50.80
41220;DHT22;26951;47.338;9.196;2023-02-01T12:57:35;4.90;50.70
41220;DHT22;26951;47.338;9.196;2023-02-01T13:00:38;4.90;50.50
41220;DHT22;26951;47.338;9.196;2023-02-01T13:06:20;4.90;49.70
41220;DHT22;26951;47.338;9.196;2023-02-01T13:12:36;4.80;49.60
41220;DHT22;26951;47.338;9.196;2023-02-01T13:15:39;4.70;50.00
41220;DHT22;26951;47.338;9.196;2023-02-01T13:18:30;4.60;50.20
41220;DHT22;26951;47.338;9.196;2023-02-01T13:21:22;4.60;50.30
41220;DHT22;26951;47.338;9.196;2023-02-01T13:24:33;4.60;50.60
41220;DHT22;26951;47.338;9.196;2023-02-01T13:27:18;4.60;50.10
41220;DHT22;26951;47.338;9.196;2023-02-01T13:30:27;4.60;49.70
41220;DHT22;26951;47.338;9.196;2023-02-01T13:36:29;4.50;49.70
41220;DHT22;26951;47.338;9.196;2023-02-01T13:42:22;4.30;49.70
41220;DHT22;26951;47.338;9.196;2023-02-01T13:45:20;4.30;49.70
41220;DHT22;26951;47.338;9.196;2023-02-01T13:48:06;4.20;50.10
41220;DHT22;26951;47.338;9.196;2023-02-01T13:50:59;4.20;50.20
41220;DHT22;26951;47.338;9.196;2023-02-01T13:53:48;4.20;50.00
41220;DHT22;26951;47.338;9.196;2023-02-01T13:56:41;4.20;50.00
41220;DHT22;26951;47.338;9.196;2023-02-01T14:08:41;4.10;50.40
41220;DHT22;26951;47.338;9.196;2023-02-01T14:11:46;4.00;50.60
41220;DHT22;26951;47.338;9.196;2023-02-01T14:14:40;4.00;50.80
41220;DHT22;26951;47.338;9.196;2023-02-01T14:17:33;4.00;51.00
41220;DHT22;26951;47.338;9.196;2023-02-01T14:20:43;3.90;51.10
41220;DHT22;26951;47.338;9.196;2023-02-01T14:23:29;3.90;51.10
41220;DHT22;26951;47.338;9.196;2023-02-01T14:26:17;3.90;50.90
41220;DHT22;26951;47.338;9.196;2023-02-01T14:29:14;3.90;51.00
41220;DHT22;26951;47.338;9.196;2023-02-01T14:32:19;3.80;51.20
41220;DHT22;26951;47.338;9.196;2023-02-01T14:35:20;3.80;51.60
41220;DHT22;26951;47.338;9.196;2023-02-01T14:38:08;3.90;51.80
41220;DHT22;26951;47.338;9.196;2023-02-01T14:40:53;3.80;51.10
41220;DHT22;26951;47.338;9.196;2023-02-01T14:50:13;3.90;50.50
41220;DHT22;26951;47.338;9.196;2023-02-01T14:55:55;3.90;50.20
41220;DHT22;26951;47.338;9.196;2023-02-01T15:01:35;3.90;50.10
41220;DHT22;26951;47.338;9.196;2023-02-01T15:04:24;3.90;49.90
41220;DHT22;26951;47.338;9.196;2023-02-01T15:07:12;3.90;49.40
41220;DHT22;26951;47.338;9.196;2023-02-01T15:09:58;3.90;50.30
41220;DHT22;26951;47.338;9.196;2023-02-01T15:12:42;3.80;49.70
41220;DHT22;26951;47.338;9.196;2023-02-01T15:15:32;3.80;50.40
41220;DHT22;26951;47.338;9.196;2023-02-01T15:18:19;3.80;50.50
41220;DHT22;26951;47.338;9.196;2023-02-01T15:21:13;3.80;50.60
41220;DHT22;26951;47.338;9.196;2023-02-01T15:24:34;3.80;50.70
41220;DHT22;26951;47.338;9.196;2023-02-01T15:27:18;3.80;51.00
41220;DHT22;26951;47.338;9.196;2023-02-01T15:30:26;3.80;51.10
41220;DHT22;26951;47.338;9.196;2023-02-01T15:36:16;3.80;51.00
41220;DHT22;26951;47.338;9.196;2023-02-01T15:39:23;3.80;51.10
41220;DHT22;26951;47.338;9.196;2023-02-01T15:42:13;3.70;51.00
41220;DHT22;26951;47.338;9.196;2023-02-01T15:45:03;3.80;51.80
41220;DHT22;26951;47.338;9.196;2023-02-01T15:47:49;3.80;51.50
41220;DHT22;26951;47.338;9.196;2023-02-01T15:50:39;3.70;52.10
41220;DHT22;26951;47.338;9.196;2023-02-01T15:53:25;3.70;52.00
41220;DHT22;26951;47.338;9.196;2023-02-01T15:56:15;3.70;52.20
41220;DHT22;26951;47.338;9.196;2023-02-01T15:59:02;3.60;52.40
41220;DHT22;26951;47.338;9.196;2023-02-01T16:01:47;3.60;52.30
41220;DHT22;26951;47.338;9.196;2023-02-01T16:04:31;3.60;52.10
41220;DHT22;26951;47.338;9.196;2023-02-01T16:07:53;3.60;52.20
41220;DHT22;26951;47.338;9.196;2023-02-01T16:10:44;3.50;51.50
41220;DHT22;26951;47.338;9.196;2023-02-01T16:13:29;3.50;52.20
41220;DHT22;26951;47.338;9.196;2023-02-01T16:16:13;3.40;52.40
41220;DHT22;26951;47.338;9.196;2023-02-01T16:18:57;3.40;52.10
41220;DHT22;26951;47.338;9.196;2023-02-01T16:21:41;3.30;52.40
41220;DHT22;26951;47.338;9.196;2023-02-01T16:24:25;3.40;52.10
41220;DHT22;26951;47.338;9.196;2023-02-01T16:27:10;3.40;51.40
41220;DHT22;26951;47.338;9.196;2023-02-01T16:29:54;3.30;51.40
41220;DHT22;26951;47.338;9.196;2023-02-01T16:32:40;3.20;51.40
41220;DHT22;26951;47.338;9.196;2023-02-01T16:35:28;3.20;51.30
41220;DHT22;26951;47.338;9.196;2023-02-01T16:38:16;3.20;51.60
41220;DHT22;26951;47.338;9.196;2023-02-01T16:41:04;3.20;51.60
41220;DHT22;26951;47.338;9.196;2023-02-01T16:43:51;3.20;50.80
41220;DHT22;26951;47.338;9.196;2023-02-01T16:46:40;3.20;51.30
41220;DHT22;26951;47.338;9.196;2023-02-01T16:49:25;3.20;51.60
41220;DHT22;26951;47.338;9.196;2023-02-01T16:52:23;3.10;51.30
41220;DHT22;26951;47.338;9.196;2023-02-01T16:55:13;3.10;51.30
41220;DHT22;26951;47.338;9.196;2023-02-01T16:57:57;3.10;50.60
41220;DHT22;26951;47.338;9.196;2023-02-01T17:00:42;3.00;50.40
41220;DHT22;26951;47.338;9.196;2023-02-01T17:03:26;3.00;51.30
41220;DHT22;26951;47.338;9.196;2023-02-01T17:06:11;3.00;51.20
41220;DHT22;26951;47.338;9.196;2023-02-01T17:08:58;3.00;50.10
41220;DHT22;26951;47.338;9.196;2023-02-01T17:11:42;3.00;51.10
41220;DHT22;26951;47.338;9.196;2023-02-01T17:14:27;3.00;50.20
41220;DHT22;26951;47.338;9.196;2023-02-01T17:17:11;3.00;50.30
41220;DHT22;26951;47.338;9.196;2023-02-01T17:19:55;2.90;49.60
41220;DHT22;26951;47.338;9.196;2023-02-01T17:22:40;2.90;50.80
41220;DHT22;26951;47.338;9.196;2023-02-01T17:25:24;2.90;49.50
41220;DHT22;26951;47.338;9.196;2023-02-01T17:28:10;2.90;51.00
41220;DHT22;26951;47.338;9.196;2023-02-01T17:30:54;2.90;51.00
41220;DHT22;26951;47.338;9.196;2023-02-01T17:33:39;2.90;49.80
41220;DHT22;26951;47.338;9.196;2023-02-01T17:36:24;2.90;50.50
41220;DHT22;26951;47.338;9.196;2023-02-01T17:39:09;2.90;50.50
41220;DHT22;26951;47.338;9.196;2023-02-01T17:41:54;2.80;51.00
41220;DHT22;26951;47.338;9.196;2023-02-01T17:44:38;2.80;50.70
41220;DHT22;26951;47.338;9.196;2023-02-01T17:47:23;2.80;50.10
41220;DHT22;26951;47.338;9.196;2023-02-01T17:50:07;2.80;51.00
41220;DHT22;26951;47.338;9.196;2023-02-01T17:52:52;2.80;51.00
41220;DHT22;26951;47.338;9.196;2023-02-01T17:55:40;2.80;50.60
41220;DHT22;26951;47.338;9.196;2023-02-01T17:58:25;2.80;50.20
41220;DHT22;26951;47.338;9.196;2023-02-01T18:01:14;2.80;50.60
41220;DHT22;26951;47.338;9.196;2023-02-01T18:03:58;2.80;50.80
41220;DHT22;26951;47.338;9.196;2023-02-01T18:06:42;2.80;51.20
41220;DHT22;26951;47.338;9.196;2023-02-01T18:09:26;2.70;51.40
41220;DHT22;26951;47.338;9.196;2023-02-01T18:12:21;2.70;51.50
41220;DHT22;26951;47.338;9.196;2023-02-01T18:15:17;2.70;51.50
41220;DHT22;26951;47.338;9.196;2023-02-01T18:18:01;2.80;51.40
41220;DHT22;26951;47.338;9.196;2023-02-01T18:20:47;2.70;51.20
41220;DHT22;26951;47.338;9.196;2023-02-01T18:23:32;2.70;51.80
41220;DHT22;26951;47.338;9.196;2023-02-01T18:26:17;2.70;51.80
41220;DHT22;26951;47.338;9.196;2023-02-01T18:29:01;2.70;51.60
41220;DHT22;26951;47.338;9.196;2023-02-01T18:31:47;2.70;51.90
41220;DHT22;26951;47.338;9.196;2023-02-01T18:34:35;2.70;51.70
41220;DHT22;26951;47.338;9.196;2023-02-01T18:37:19;2.70;52.00
41220;DHT22;26951;47.338;9.196;2023-02-01T18:40:03;2.70;52.20
41220;DHT22;26951;47.338;9.196;2023-02-01T18:42:48;2.60;52.10
41220;DHT22;26951;47.338;9.196;2023-02-01T18:45:40;2.60;52.30
41220;DHT22;26951;47.338;9.196;2023-02-01T18:48:24;2.60;52.10
41220;DHT22;26951;47.338;9.196;2023-02-01T18:51:11;2.60;52.20
41220;DHT22;26951;47.338;9.196;2023-02-01T18:53:56;2.50;52.40
41220;DHT22;26951;47.338;9.196;2023-02-01T18:56:40;2.50;52.80
41220;DHT22;26951;47.338;9.196;2023-02-01T18:59:25;2.50;52.90
41220;DHT22;26951;47.338;9.196;2023-02-01T19:02:11;2.50;53.40
41220;DHT22;26951;47.338;9.196;2023-02-01T19:04:56;2.50;53.10
41220;DHT22;26951;47.338;9.196;2023-02-01T19:07:41;2.50;53.00
41220;DHT22;26951;47.338;9.196;2023-02-01T19:10:26;2.50;53.60
41220;DHT22;26951;47.338;9.196;2023-02-01T19:13:11;2.50;53.60
41220;DHT22;26951;47.338;9.196;2023-02-01T19:16:03;2.50;53.60
41220;DHT22;26951;47.338;9.196;2023-02-01T19:18:51;2.50;54.00
41220;DHT22;26951;47.338;9.196;2023-02-01T19:21:36;2.50;54.10
41220;DHT22;26951;47.338;9.196;2023-02-01T19:24:20;2.50;53.90
41220;DHT22;26951;47.338;9.196;2023-02-01T19:27:04;2.50;54.30
41220;DHT22;26951;47.338;9.196;2023-02-01T19:29:49;2.50;54.40
41220;DHT22;26951;47.338;9.196;2023-02-01T19:32:35;2.50;54.70
41220;DHT22;26951;47.338;9.196;2023-02-01T19:35:20;2.40;54.60
41220;DHT22;26951;47.338;9.196;2023-02-01T19:38:04;2.50;54.60
41220;DHT22;26951;47.338;9.196;2023-02-01T19:40:48;2.60;54.70
41220;DHT22;26951;47.338;9.196;2023-02-01T19:43:33;2.50;54.70
41220;DHT22;26951;47.338;9.196;2023-02-01T19:46:18;2.50;54.80
41220;DHT22;26951;47.338;9.196;2023-02-01T19:49:02;2.50;55.10
41220;DHT22;26951;47.338;9.196;2023-02-01T19:51:46;2.50;55.10
41220;DHT22;26951;47.338;9.196;2023-02-01T19:54:31;2.50;55.10